createdAt,value
2019-01-29T00:01:00.680Z,0.80
2019-01-29T00:03:41.028Z,1.15
2019-01-29T00:06:21.712Z,0.80
2019-01-29T00:09:02.656Z,1.10
2019-01-29T00:11:43.075Z,0.90
2019-01-29T00:14:24.348Z,0.90
2019-01-29T00:17:05.152Z,0.68
2019-01-29T00:19:45.877Z,0.70
2019-01-29T00:22:33.272Z,1.05
2019-01-29T00:25:09.119Z,1.05
2019-01-29T00:27:49.595Z,1.02
2019-01-29T00:30:30.089Z,0.70
2019-01-29T00:33:10.964Z,0.93
2019-01-29T00:35:51.293Z,1.00
2019-01-29T00:38:31.868Z,2.22
2019-01-29T00:41:12.152Z,1.00
2019-01-29T00:43:52.707Z,0.80
2019-01-29T00:46:33.259Z,0.95
2019-01-29T00:49:14.019Z,0.78
2019-01-29T00:51:54.925Z,1.10
2019-01-29T00:54:35.353Z,0.88
2019-01-29T00:57:15.992Z,1.37
2019-01-29T00:59:56.720Z,1.00
2019-01-29T01:02:37.144Z,1.07
2019-01-29T01:05:17.812Z,1.15
2019-01-29T01:07:58.361Z,0.88
2019-01-29T01:10:38.937Z,0.70
2019-01-29T01:13:19.353Z,1.00
2019-01-29T01:15:59.825Z,1.00
2019-01-29T01:18:40.893Z,0.90
2019-01-29T01:21:21.435Z,1.50
2019-01-29T01:24:02.520Z,1.25
2019-01-29T01:26:43.291Z,0.90
2019-01-29T01:29:23.878Z,1.10
2019-01-29T01:32:05.070Z,1.35
2019-01-29T01:34:45.916Z,1.30
2019-01-29T01:37:26.571Z,1.00
2019-01-29T01:40:07.117Z,0.60
2019-01-29T01:42:47.935Z,0.90
2019-01-29T01:45:28.900Z,1.00
2019-01-29T01:48:09.896Z,1.00
2019-01-29T01:50:50.536Z,1.12
2019-01-29T01:53:31.340Z,1.27
2019-01-29T01:56:11.791Z,1.20
2019-01-29T01:58:53.157Z,0.82
2019-01-29T02:01:33.711Z,1.10
2019-01-29T02:04:14.287Z,0.93
2019-01-29T02:06:54.908Z,1.30
2019-01-29T02:09:35.873Z,0.80
2019-01-29T02:12:16.457Z,1.10
2019-01-29T02:14:57.426Z,0.90
2019-01-29T02:17:38.068Z,1.00
2019-01-29T02:20:19.080Z,0.80
2019-01-29T02:23:07.537Z,1.05
2019-01-29T02:25:42.372Z,2.12
2019-01-29T02:28:22.876Z,1.77
2019-01-29T02:31:03.408Z,1.02
2019-01-29T02:33:44.612Z,1.27
2019-01-29T02:36:25.073Z,0.75
2019-01-29T02:39:05.541Z,1.00
2019-01-29T02:41:46.535Z,0.80
2019-01-29T02:44:27.714Z,0.75
2019-01-29T02:47:07.904Z,1.00
2019-01-29T02:49:48.336Z,0.80
2019-01-29T02:52:28.966Z,0.88
2019-01-29T02:55:09.618Z,0.88
2019-01-29T02:57:50.002Z,0.60
2019-01-29T03:00:30.648Z,0.80
2019-01-29T03:03:11.508Z,0.93
2019-01-29T03:05:51.969Z,1.85
2019-01-29T03:08:32.698Z,1.25
2019-01-29T03:11:14.043Z,0.90
2019-01-29T03:13:55.089Z,1.22
2019-01-29T03:16:35.741Z,1.47
2019-01-29T03:19:16.564Z,0.98
2019-01-29T03:21:57.273Z,1.00
2019-01-29T03:24:38.387Z,0.60
2019-01-29T03:27:18.952Z,1.05
2019-01-29T03:29:59.430Z,1.12
2019-01-29T03:32:40.007Z,1.00
2019-01-29T03:35:20.488Z,0.80
2019-01-29T03:38:00.845Z,0.82
2019-01-29T03:40:41.275Z,1.40
2019-01-29T03:43:22.008Z,1.00
2019-01-29T03:46:02.549Z,0.82
2019-01-29T03:48:43.184Z,0.90
2019-01-29T03:51:23.584Z,0.90
2019-01-29T03:54:04.105Z,1.05
2019-01-29T03:56:45.082Z,1.50
2019-01-29T03:59:25.730Z,1.00
2019-01-29T04:02:06.473Z,1.60
2019-01-29T04:04:46.924Z,0.98
2019-01-29T04:07:27.719Z,1.10
2019-01-29T04:10:08.955Z,1.27
2019-01-29T04:12:49.623Z,1.00
2019-01-29T04:15:30.520Z,0.85
2019-01-29T04:18:11.085Z,0.93
2019-01-29T04:20:52.301Z,1.12
2019-01-29T04:23:33.284Z,0.93
2019-01-29T04:26:13.765Z,0.68
2019-01-29T04:28:55.042Z,1.35
2019-01-29T04:31:35.637Z,1.22
2019-01-29T04:34:16.141Z,1.00
2019-01-29T04:36:57.145Z,1.60
2019-01-29T04:39:37.837Z,1.87
2019-01-29T04:42:18.130Z,1.22
2019-01-29T04:44:58.388Z,1.37
2019-01-29T04:47:38.976Z,0.80
2019-01-29T04:50:19.861Z,1.25
2019-01-29T04:53:00.446Z,1.05
2019-01-29T04:55:41.230Z,1.30
2019-01-29T04:58:21.683Z,0.88
2019-01-29T05:01:02.285Z,1.07
2019-01-29T05:03:42.919Z,0.90
2019-01-29T05:06:23.445Z,0.72
2019-01-29T05:09:04.849Z,2.47
2019-01-29T05:11:45.620Z,1.37
2019-01-29T05:14:26.203Z,1.35
2019-01-29T05:17:07.077Z,1.20
2019-01-29T05:19:47.924Z,1.20
2019-01-29T05:22:28.652Z,0.80
2019-01-29T05:25:09.613Z,1.50
2019-01-29T05:27:50.152Z,1.17
2019-01-29T05:30:30.896Z,1.07
2019-01-29T05:33:11.601Z,0.80
2019-01-29T05:35:51.884Z,0.98
2019-01-29T05:38:32.771Z,1.10
2019-01-29T05:41:13.168Z,1.40
2019-01-29T05:43:54.056Z,1.00
2019-01-29T05:46:34.996Z,0.90
2019-01-29T05:49:15.333Z,1.22
2019-01-29T05:51:55.788Z,1.10
2019-01-29T05:54:36.496Z,1.07
2019-01-29T05:57:17.291Z,2.17
2019-01-29T05:59:57.821Z,0.80
2019-01-29T06:02:38.471Z,0.75
2019-01-29T06:05:19.393Z,1.07
2019-01-29T06:07:59.876Z,1.90
2019-01-29T06:10:40.915Z,1.02
2019-01-29T06:13:21.657Z,1.10
2019-01-29T06:16:02.303Z,1.22
2019-01-29T06:18:42.876Z,1.02
2019-01-29T06:21:23.661Z,1.40
2019-01-29T06:24:04.009Z,1.25
2019-01-29T06:26:44.472Z,0.90
2019-01-29T06:29:24.984Z,1.30
2019-01-29T06:32:05.888Z,1.27
2019-01-29T06:34:46.964Z,0.90
2019-01-29T06:37:27.224Z,1.27
2019-01-29T06:40:07.836Z,1.07
2019-01-29T06:42:48.146Z,1.45
2019-01-29T06:45:28.844Z,1.40
2019-01-29T06:48:09.852Z,0.90
2019-01-29T06:50:50.171Z,1.00
2019-01-29T06:53:31.133Z,1.10
2019-01-29T06:56:11.804Z,1.60
2019-01-29T06:58:52.512Z,0.90
2019-01-29T07:01:33.468Z,1.00
2019-01-29T07:04:14.161Z,1.10
2019-01-29T07:06:55.264Z,1.10
2019-01-29T07:09:35.474Z,1.65
2019-01-29T07:12:16.568Z,1.17
2019-01-29T07:14:57.358Z,0.90
2019-01-29T07:17:38.132Z,1.30
2019-01-29T07:20:18.877Z,1.10
2019-01-29T07:22:59.624Z,1.65
2019-01-29T07:25:40.888Z,1.27
2019-01-29T07:28:21.721Z,1.37
2019-01-29T07:31:02.899Z,1.25
2019-01-29T07:33:43.514Z,2.12
2019-01-29T07:36:23.748Z,1.20
2019-01-29T07:39:04.904Z,1.70
2019-01-29T07:41:45.260Z,2.25
2019-01-29T07:44:26.096Z,2.27
2019-01-29T07:47:06.771Z,1.85
2019-01-29T07:49:47.232Z,1.62
2019-01-29T07:52:27.936Z,1.60
2019-01-29T07:55:08.872Z,1.57
2019-01-29T07:57:49.591Z,2.00
2019-01-29T08:00:30.413Z,1.40
2019-01-29T08:03:10.840Z,1.87
2019-01-29T08:05:51.796Z,2.37
2019-01-29T08:08:32.331Z,2.10
2019-01-29T08:11:13.088Z,2.80
2019-01-29T08:13:53.372Z,2.67
2019-01-29T08:16:33.836Z,2.15
2019-01-29T08:19:14.247Z,1.60
2019-01-29T08:21:54.830Z,1.87
2019-01-29T08:24:35.152Z,2.30
2019-01-29T08:27:16.023Z,1.70
2019-01-29T08:29:57.168Z,1.60
2019-01-29T08:32:37.644Z,1.90
2019-01-29T08:35:18.288Z,1.72
2019-01-29T08:37:59.124Z,2.20
2019-01-29T08:40:39.764Z,2.85
2019-01-29T08:43:20.616Z,2.30
2019-01-29T08:46:01.113Z,1.85
2019-01-29T08:48:41.735Z,2.27
2019-01-29T08:51:22.436Z,2.00
2019-01-29T08:54:02.912Z,2.87
2019-01-29T08:56:43.120Z,1.42
2019-01-29T08:59:23.950Z,1.50
2019-01-29T09:02:05.055Z,1.82
2019-01-29T09:04:45.636Z,1.40
2019-01-29T09:07:26.298Z,1.40
2019-01-29T09:10:07.140Z,1.85
2019-01-29T09:12:47.393Z,1.40
2019-01-29T09:15:27.763Z,1.82
2019-01-29T09:18:08.212Z,2.35
2019-01-29T09:20:48.465Z,3.55
2019-01-29T09:23:28.916Z,2.95
2019-01-29T09:26:09.585Z,2.45
2019-01-29T09:28:49.996Z,1.75
2019-01-29T09:31:31.180Z,1.55
2019-01-29T09:34:11.852Z,1.87
2019-01-29T09:36:52.336Z,2.80
2019-01-29T09:39:32.889Z,1.70
2019-01-29T09:42:14.140Z,1.22
2019-01-29T09:44:54.956Z,1.77
2019-01-29T09:47:35.704Z,2.20
2019-01-29T09:50:16.028Z,4.00
2019-01-29T09:52:56.388Z,1.98
2019-01-29T09:55:37.344Z,1.90
2019-01-29T09:58:17.984Z,2.12
2019-01-29T10:00:59.088Z,2.25
2019-01-29T10:03:39.291Z,1.80
2019-01-29T10:06:20.235Z,2.08
2019-01-29T10:09:00.650Z,1.92
2019-01-29T10:11:41.376Z,1.52
2019-01-29T10:14:22.671Z,1.75
2019-01-29T10:17:03.681Z,2.42
2019-01-29T10:19:44.796Z,1.95
2019-01-29T10:22:25.455Z,2.17
2019-01-29T10:25:05.911Z,2.52
2019-01-29T10:27:46.552Z,1.92
2019-01-29T10:30:26.959Z,1.98
2019-01-29T10:33:07.673Z,2.00
2019-01-29T10:35:48.228Z,2.35
2019-01-29T10:38:29.028Z,3.27
2019-01-29T10:41:09.981Z,2.33
2019-01-29T10:43:50.732Z,2.85
2019-01-29T10:46:31.954Z,3.30
2019-01-29T10:49:12.152Z,3.87
2019-01-29T10:51:52.480Z,2.08
2019-01-29T10:54:32.940Z,2.80
2019-01-29T10:57:13.448Z,3.08
2019-01-29T10:59:53.936Z,3.45
2019-01-29T11:02:34.781Z,2.50
2019-01-29T11:05:15.444Z,2.17
2019-01-29T11:07:56.253Z,1.95
2019-01-29T11:10:36.561Z,4.15
2019-01-29T11:13:17.321Z,1.60
2019-01-29T11:15:57.669Z,3.50
2019-01-29T11:18:38.104Z,2.85
2019-01-29T11:21:18.826Z,2.72
2019-01-29T11:23:59.547Z,3.95
2019-01-29T11:26:39.901Z,3.10
2019-01-29T11:29:20.678Z,3.83
2019-01-29T11:32:00.944Z,3.58
2019-01-29T11:34:41.433Z,2.92
2019-01-29T11:37:22.113Z,2.17
2019-01-29T11:40:03.071Z,2.35
2019-01-29T11:42:43.662Z,4.97
2019-01-29T11:45:24.457Z,3.62
2019-01-29T11:48:05.101Z,2.90
2019-01-29T11:50:45.656Z,3.80
2019-01-29T11:53:26.295Z,4.22
2019-01-29T11:56:06.820Z,4.10
2019-01-29T11:58:47.376Z,4.70
2019-01-29T12:01:27.718Z,4.03
2019-01-29T12:04:08.541Z,3.95
2019-01-29T12:06:49.167Z,3.67
2019-01-29T12:09:29.683Z,3.85
2019-01-29T12:12:10.480Z,3.67
2019-01-29T12:14:51.036Z,4.85
2019-01-29T12:17:31.600Z,3.75
2019-01-29T12:20:12.485Z,3.62
2019-01-29T12:22:53.383Z,4.50
2019-01-29T12:25:34.204Z,4.97
2019-01-29T12:28:15.009Z,3.62
2019-01-29T12:30:55.829Z,3.05
2019-01-29T12:33:36.496Z,4.87
2019-01-29T12:36:17.452Z,3.47
2019-01-29T12:38:58.012Z,5.05
2019-01-29T12:41:38.632Z,4.30
2019-01-29T12:44:19.575Z,3.15
2019-01-29T12:47:00.439Z,3.22
2019-01-29T12:49:41.140Z,3.40
2019-01-29T12:52:22.949Z,3.22
2019-01-29T12:55:04.260Z,3.45
2019-01-29T12:57:44.785Z,3.58
2019-01-29T13:00:27.077Z,3.33
2019-01-29T13:03:07.964Z,3.17
2019-01-29T13:05:48.992Z,3.55
2019-01-29T13:08:29.502Z,2.30
2019-01-29T13:11:09.875Z,4.05
2019-01-29T13:13:50.759Z,3.92
2019-01-29T13:16:31.576Z,4.60
2019-01-29T13:19:11.808Z,5.08
2019-01-29T13:21:52.773Z,4.25
2019-01-29T13:24:33.298Z,3.15
2019-01-29T13:27:13.908Z,4.60
2019-01-29T13:29:54.432Z,3.85
2019-01-29T13:32:35.226Z,2.90
2019-01-29T13:35:15.437Z,3.65
2019-01-29T13:37:56.056Z,3.87
2019-01-29T13:40:37.074Z,3.72
2019-01-29T13:43:17.816Z,3.35
2019-01-29T13:45:58.451Z,3.50
2019-01-29T13:48:38.989Z,4.15
2019-01-29T13:51:19.863Z,3.33
2019-01-29T13:54:00.623Z,2.90
2019-01-29T13:56:41.593Z,4.58
2019-01-29T13:59:22.061Z,4.12
2019-01-29T14:02:02.600Z,3.05
2019-01-29T14:04:43.489Z,3.22
2019-01-29T14:07:23.844Z,2.12
2019-01-29T14:10:04.660Z,2.45
2019-01-29T14:12:45.555Z,3.15
2019-01-29T14:18:20.723Z,2.10
2019-01-29T14:21:01.196Z,1.70
2019-01-29T14:23:41.529Z,2.20
2019-01-29T14:26:22.024Z,2.37
2019-01-29T14:29:02.961Z,2.45
2019-01-29T14:31:43.755Z,2.90
2019-01-29T14:34:24.272Z,3.02
2019-01-29T14:37:04.969Z,2.72
2019-01-29T14:39:45.588Z,2.15
2019-01-29T14:42:26.348Z,2.67
2019-01-29T14:45:07.328Z,2.45
2019-01-29T14:47:47.839Z,2.58
2019-01-29T14:50:28.776Z,1.87
2019-01-29T14:53:09.165Z,1.70
2019-01-29T14:55:49.819Z,2.05
2019-01-29T14:58:30.436Z,1.77
2019-01-29T15:01:10.858Z,1.60
2019-01-29T15:03:51.325Z,1.70
2019-01-29T15:06:32.875Z,2.02
2019-01-29T15:09:13.757Z,1.40
2019-01-29T15:11:54.412Z,2.27
2019-01-29T15:14:35.156Z,2.10
2019-01-29T15:17:17.587Z,1.70
2019-01-29T15:19:58.511Z,1.57
2019-01-29T15:22:39.068Z,1.75
2019-01-29T15:25:19.428Z,2.20
2019-01-29T15:27:59.884Z,2.20
2019-01-29T15:30:40.588Z,1.35
2019-01-29T15:33:21.545Z,3.05
2019-01-29T15:36:02.636Z,1.75
2019-01-29T15:38:43.064Z,1.62
2019-01-29T15:41:23.747Z,1.30
2019-01-29T15:44:04.316Z,2.20
2019-01-29T15:46:45.213Z,2.17
2019-01-29T15:49:25.584Z,1.30
2019-01-29T15:52:06.076Z,2.15
2019-01-29T15:54:46.784Z,1.80
2019-01-29T15:57:27.527Z,1.90
2019-01-29T16:00:08.289Z,2.25
2019-01-29T16:02:48.775Z,2.10
2019-01-29T16:05:29.596Z,1.85
2019-01-29T16:08:10.178Z,1.75
2019-01-29T16:10:51.031Z,3.62
2019-01-29T16:13:31.996Z,3.58
2019-01-29T16:16:12.877Z,2.12
2019-01-29T16:18:53.180Z,3.05
2019-01-29T16:21:34.372Z,3.10
2019-01-29T16:24:15.247Z,3.55
2019-01-29T16:26:55.885Z,3.45
2019-01-29T16:29:36.255Z,3.75
2019-01-29T16:32:17.024Z,3.25
2019-01-29T16:34:57.618Z,3.92
2019-01-29T16:37:38.331Z,3.52
2019-01-29T16:40:18.996Z,2.70
2019-01-29T16:42:59.536Z,2.65
2019-01-29T16:45:40.073Z,3.87
2019-01-29T16:48:20.824Z,3.20
2019-01-29T16:51:01.301Z,2.65
2019-01-29T16:53:42.025Z,3.17
2019-01-29T16:56:22.591Z,5.03
2019-01-29T16:59:03.485Z,3.12
2019-01-29T17:01:43.979Z,2.52
2019-01-29T17:04:25.349Z,3.27
2019-01-29T17:07:05.832Z,3.30
2019-01-29T17:09:46.196Z,2.47
2019-01-29T17:12:26.777Z,3.10
2019-01-29T17:15:07.407Z,2.02
2019-01-29T17:17:47.996Z,2.90
2019-01-29T17:20:28.648Z,2.87
2019-01-29T17:23:09.039Z,2.65
2019-01-29T17:25:49.512Z,2.17
2019-01-29T17:28:30.152Z,2.67
2019-01-29T17:31:11.336Z,2.42
2019-01-29T17:33:52.373Z,2.22
2019-01-29T17:36:33.213Z,3.15
2019-01-29T17:39:13.958Z,3.52
2019-01-29T17:41:54.264Z,3.50
2019-01-29T17:44:35.279Z,2.25
2019-01-29T17:47:15.860Z,2.22
2019-01-29T17:49:56.195Z,2.30
2019-01-29T17:52:36.883Z,2.90
2019-01-29T17:55:17.529Z,2.80
2019-01-29T17:57:58.374Z,3.87
2019-01-29T18:00:40.728Z,3.35
2019-01-29T18:03:21.979Z,2.87
2019-01-29T18:06:02.313Z,3.98
2019-01-29T18:08:49.667Z,3.15
2019-01-29T18:11:25.148Z,2.22
2019-01-29T18:14:06.080Z,3.10
2019-01-29T18:16:46.659Z,2.80
2019-01-29T18:19:27.448Z,4.00
2019-01-29T18:22:08.148Z,2.62
2019-01-29T18:24:49.043Z,2.25
2019-01-29T18:27:29.463Z,3.77
2019-01-29T18:30:10.255Z,3.33
2019-01-29T18:32:51.060Z,2.62
2019-01-29T18:35:31.790Z,3.83
2019-01-29T18:38:12.540Z,4.22
2019-01-29T18:40:53.367Z,3.12
2019-01-29T18:43:33.808Z,2.05
2019-01-29T18:46:14.710Z,3.20
2019-01-29T18:48:55.236Z,2.60
2019-01-29T18:51:35.665Z,2.35
2019-01-29T18:54:16.623Z,2.85
2019-01-29T18:56:57.716Z,2.35
2019-01-29T18:59:38.297Z,2.80
2019-01-29T19:02:19.016Z,3.98
2019-01-29T19:04:59.949Z,2.65
2019-01-29T19:07:40.817Z,2.05
2019-01-29T19:10:21.396Z,1.80
2019-01-29T19:13:01.872Z,2.00
2019-01-29T19:15:42.351Z,3.17
2019-01-29T19:18:23.071Z,2.40
2019-01-29T19:21:03.956Z,2.90
2019-01-29T19:23:44.777Z,2.35
2019-01-29T19:26:25.203Z,3.22
2019-01-29T19:29:06.603Z,1.95
2019-01-29T19:31:47.641Z,2.45
2019-01-29T19:34:28.001Z,2.58
2019-01-29T19:37:08.819Z,3.15
2019-01-29T19:39:49.500Z,1.98
2019-01-29T19:42:29.880Z,3.35
2019-01-29T19:45:10.952Z,2.33
2019-01-29T19:47:51.473Z,2.15
2019-01-29T19:50:32.077Z,2.95
2019-01-29T19:53:12.884Z,2.40
2019-01-29T19:55:53.394Z,1.98
2019-01-29T19:58:34.069Z,1.75
2019-01-29T20:01:14.524Z,2.55
2019-01-29T20:03:55.305Z,2.50
2019-01-29T20:06:35.640Z,2.85
2019-01-29T20:09:16.248Z,1.90
2019-01-29T20:11:57.035Z,2.35
2019-01-29T20:14:37.760Z,2.25
2019-01-29T20:17:18.147Z,1.80
2019-01-29T20:19:58.966Z,1.50
2019-01-29T20:22:39.801Z,2.65
2019-01-29T20:25:20.732Z,1.75
2019-01-29T20:28:01.284Z,1.60
2019-01-29T20:30:42.247Z,2.72
2019-01-29T20:33:22.768Z,3.35
2019-01-29T20:36:03.512Z,3.30
2019-01-29T20:38:44.208Z,2.55
2019-01-29T20:41:24.869Z,1.40
2019-01-29T20:47:18.707Z,2.55
2019-01-29T20:49:59.216Z,2.40
2019-01-29T20:52:40.452Z,2.67
2019-01-29T20:55:20.937Z,2.67
2019-01-29T20:58:02.024Z,1.98
2019-01-29T21:00:42.545Z,1.52
2019-01-29T21:03:23.476Z,2.45
2019-01-29T21:06:03.944Z,2.45
2019-01-29T21:08:44.987Z,2.87
2019-01-29T21:11:25.677Z,2.45
2019-01-29T21:14:06.432Z,1.85
2019-01-29T21:16:47.230Z,2.58
2019-01-29T21:19:28.408Z,3.15
2019-01-29T21:22:09.038Z,1.40
2019-01-29T21:24:49.550Z,2.17
2019-01-29T21:27:30.192Z,1.40
2019-01-29T21:30:11.148Z,2.12
2019-01-29T21:32:51.508Z,2.27
2019-01-29T21:35:32.224Z,1.90
2019-01-29T21:38:12.812Z,2.25
2019-01-29T21:40:53.327Z,1.50
2019-01-29T21:43:34.379Z,2.05
2019-01-29T21:46:14.968Z,2.37
2019-01-29T21:48:55.563Z,1.90
2019-01-29T21:51:35.997Z,2.37
2019-01-29T21:54:16.796Z,2.33
2019-01-29T21:56:57.770Z,2.05
2019-01-29T21:59:38.437Z,2.95
2019-01-29T22:02:20.041Z,2.55
2019-01-29T22:05:00.781Z,1.98
2019-01-29T22:07:41.492Z,3.20
2019-01-29T22:10:22.229Z,2.02
2019-01-29T22:13:02.776Z,2.00
2019-01-29T22:15:43.352Z,1.85
2019-01-29T22:18:24.240Z,2.40
2019-01-29T22:21:05.093Z,1.80
2019-01-29T22:23:45.609Z,1.60
2019-01-29T22:26:26.328Z,1.87
2019-01-29T22:29:07.148Z,2.12
2019-01-29T22:31:47.648Z,1.55
2019-01-29T22:34:28.499Z,3.12
2019-01-29T22:37:09.471Z,2.30
2019-01-29T22:39:50.084Z,2.35
2019-01-29T22:42:31.064Z,2.35
2019-01-29T22:45:11.520Z,3.27
2019-01-29T22:47:52.424Z,2.55
2019-01-29T22:50:32.947Z,1.35
2019-01-29T22:53:13.564Z,1.80
2019-01-29T22:55:54.461Z,1.30
2019-01-29T22:58:34.935Z,3.50
2019-01-29T23:01:16.165Z,1.45
2019-01-29T23:03:56.784Z,1.87
2019-01-29T23:06:37.216Z,2.02
2019-01-29T23:09:17.895Z,2.08
2019-01-29T23:11:58.594Z,2.22
2019-01-29T23:14:39.104Z,2.00
2019-01-29T23:17:19.685Z,1.55
2019-01-29T23:20:00.340Z,2.67
2019-01-29T23:22:41.068Z,1.42
2019-01-29T23:25:22.224Z,2.12
2019-01-29T23:28:03.164Z,1.75
2019-01-29T23:30:43.821Z,1.37
2019-01-29T23:33:24.509Z,2.08
2019-01-29T23:36:05.028Z,1.55
2019-01-29T23:38:47.490Z,2.58
2019-01-29T23:41:28.672Z,1.40
2019-01-29T23:44:09.783Z,1.12
2019-01-29T23:46:50.524Z,1.60
2019-01-29T23:49:31.251Z,1.35
2019-01-29T23:52:11.696Z,1.55
2019-01-29T23:54:52.577Z,2.98
2019-01-29T23:57:33.215Z,1.27
